New Centerville, Idaho
Current Conditions -  °F | °C
As of 10:53 PM on Friday 19 Dec 2014 (Local Time) from KBOI Reporting Station
Few Clouds Few Clouds  
Wind Chill: 31°   Ceiling: Unl
Heat Index: 38°   Visibility: 10mi
Dew Point: 34°   Wind: 9mph
Humidity: 86%   Direction: 130°SE
Pressure: 30.08"   Gusts: NA
Location:  43.8008°N, 115.834°W
Report Text: KBOI 200553Z 13008KT 10SM FEW070 03/01 A3008 RMK AO2 SLP195 60002 T00330011 10061 20033 50002
Loading
Personal Weather Stations






























Interactive Weather Map New forecast layout! Learn more

10-Day Weather Forecast

Advertisements
Track Severe Weather on mobile